createdAt,value
2022-07-31T00:00:21.950Z,99.90
2022-07-31T00:02:49.139Z,99.90
2022-07-31T00:05:16.248Z,99.90
2022-07-31T00:07:43.489Z,99.90
2022-07-31T00:10:11.109Z,99.90
2022-07-31T00:12:38.227Z,99.90
2022-07-31T00:15:10.209Z,99.90
2022-07-31T00:17:43.687Z,99.90
2022-07-31T00:20:14.529Z,99.90
2022-07-31T00:22:47.870Z,99.90
2022-07-31T00:25:16.804Z,99.90
2022-07-31T00:27:43.876Z,99.90
2022-07-31T00:30:15.732Z,99.90
2022-07-31T00:32:42.948Z,99.90
2022-07-31T00:35:12.405Z,99.90
2022-07-31T00:37:40.786Z,99.90
2022-07-31T00:40:11.666Z,99.90
2022-07-31T00:42:39.181Z,99.90
2022-07-31T00:45:07.586Z,99.90
2022-07-31T00:47:35.355Z,99.90
2022-07-31T00:50:04.595Z,99.90
2022-07-31T00:52:32.852Z,99.90
2022-07-31T00:54:59.894Z,99.90
2022-07-31T00:57:26.931Z,99.90
2022-07-31T00:59:54.125Z,99.90
2022-07-31T01:02:21.287Z,99.90
2022-07-31T01:04:48.516Z,99.90
2022-07-31T01:07:15.823Z,99.90
2022-07-31T01:09:42.935Z,99.90
2022-07-31T01:12:24.710Z,99.90
2022-07-31T01:14:58.070Z,99.90
2022-07-31T01:17:27.759Z,99.90
2022-07-31T01:19:55.071Z,99.90
2022-07-31T01:23:04.835Z,99.90
2022-07-31T01:25:52.783Z,99.90
2022-07-31T01:29:03.064Z,99.90
2022-07-31T01:31:37.255Z,99.90
2022-07-31T01:34:22.505Z,99.90
2022-07-31T01:37:00.903Z,99.90
2022-07-31T01:39:34.142Z,99.90
2022-07-31T01:42:06.989Z,99.90
2022-07-31T01:44:43.671Z,99.90
2022-07-31T01:47:15.715Z,99.90
2022-07-31T01:49:45.253Z,99.90
2022-07-31T01:52:14.505Z,99.90
2022-07-31T01:54:44.080Z,99.90
2022-07-31T01:57:13.166Z,99.90
2022-07-31T01:59:48.155Z,99.90
2022-07-31T02:02:16.924Z,99.90
2022-07-31T02:04:47.215Z,99.90
2022-07-31T02:07:16.262Z,99.90
2022-07-31T02:09:52.430Z,99.90
2022-07-31T02:12:32.982Z,99.90
2022-07-31T02:15:07.043Z,99.90
2022-07-31T02:17:35.690Z,99.90
2022-07-31T02:20:06.959Z,99.90
2022-07-31T02:22:35.128Z,99.90
2022-07-31T02:25:04.418Z,99.90
2022-07-31T02:27:58.250Z,99.90
2022-07-31T02:30:19.315Z,99.90
2022-07-31T02:32:48.308Z,99.90
2022-07-31T02:35:17.941Z,99.90
2022-07-31T02:37:47.492Z,99.90
2022-07-31T02:40:15.613Z,99.90
2022-07-31T02:42:43.602Z,99.90
2022-07-31T02:45:11.164Z,99.90
2022-07-31T02:47:39.200Z,99.90
2022-07-31T02:50:07.736Z,99.90
2022-07-31T02:52:35.059Z,99.90
2022-07-31T02:55:03.412Z,99.90
2022-07-31T02:57:30.553Z,99.90
2022-07-31T02:59:57.660Z,99.90
2022-07-31T03:02:24.907Z,99.90
2022-07-31T03:05:06.876Z,99.90
2022-07-31T03:07:34.149Z,99.90
2022-07-31T03:10:01.224Z,99.90
2022-07-31T03:12:28.335Z,99.90
2022-07-31T03:14:56.905Z,99.90
2022-07-31T03:17:24.989Z,99.90
2022-07-31T03:20:08.773Z,99.90
2022-07-31T03:22:36.135Z,99.90
2022-07-31T03:25:05.046Z,99.90
2022-07-31T03:27:32.135Z,99.90
2022-07-31T03:29:59.295Z,99.90
2022-07-31T03:32:26.328Z,99.90
2022-07-31T03:34:53.467Z,99.90
2022-07-31T03:37:20.521Z,99.90
2022-07-31T03:39:47.599Z,99.90
2022-07-31T03:42:18.988Z,99.90
2022-07-31T03:44:48.176Z,99.90
2022-07-31T03:47:16.638Z,99.90
2022-07-31T03:49:44.424Z,99.90
2022-07-31T03:52:12.390Z,99.90
2022-07-31T03:54:40.836Z,99.90
2022-07-31T03:57:08.831Z,99.90
2022-07-31T03:59:40.546Z,99.90
2022-07-31T04:02:18.643Z,99.90
2022-07-31T04:04:46.165Z,99.90
2022-07-31T04:07:13.309Z,99.90
2022-07-31T04:09:40.540Z,99.90
2022-07-31T04:12:07.953Z,99.90
2022-07-31T04:14:35.287Z,99.90
2022-07-31T04:17:02.476Z,99.90
2022-07-31T04:19:31.161Z,99.90
2022-07-31T04:21:59.836Z,99.90
2022-07-31T04:24:27.618Z,99.90
2022-07-31T04:26:58.695Z,99.90
2022-07-31T04:29:28.803Z,99.90
2022-07-31T04:31:56.463Z,99.90
2022-07-31T04:34:23.631Z,99.90
2022-07-31T04:36:50.793Z,99.90
2022-07-31T04:39:18.368Z,99.90
2022-07-31T04:41:45.444Z,99.90
2022-07-31T04:44:12.603Z,99.90
2022-07-31T04:46:39.683Z,99.90
2022-07-31T04:49:06.836Z,99.90
2022-07-31T04:51:33.943Z,99.90
2022-07-31T04:54:01.044Z,99.90
2022-07-31T04:56:33.725Z,99.90
2022-07-31T04:59:03.365Z,99.90
2022-07-31T05:01:30.753Z,99.90
2022-07-31T05:03:58.179Z,99.90
2022-07-31T05:06:38.466Z,99.90
2022-07-31T05:09:28.276Z,99.90
2022-07-31T05:11:59.209Z,99.90
2022-07-31T05:14:26.273Z,99.90
2022-07-31T05:16:55.843Z,99.90
2022-07-31T05:19:23.297Z,99.90
2022-07-31T05:21:54.030Z,99.90
2022-07-31T05:24:33.069Z,99.90
2022-07-31T05:27:03.095Z,99.90
2022-07-31T05:29:31.410Z,99.90
2022-07-31T05:32:00.411Z,99.90
2022-07-31T05:34:30.470Z,99.90
2022-07-31T05:37:01.964Z,99.90
2022-07-31T05:39:30.304Z,99.90
2022-07-31T05:41:57.626Z,99.90
2022-07-31T05:44:26.389Z,99.90
2022-07-31T05:49:19.927Z,99.90
2022-07-31T05:51:47.329Z,99.90
2022-07-31T05:54:14.850Z,99.90
2022-07-31T05:56:41.932Z,99.90
2022-07-31T05:59:09.925Z,99.90
2022-07-31T06:01:37.833Z,99.90
2022-07-31T06:04:05.652Z,99.90
2022-07-31T06:06:32.836Z,99.90
2022-07-31T06:09:04.567Z,99.90
2022-07-31T06:11:32.543Z,99.90
2022-07-31T06:13:59.803Z,99.90
2022-07-31T06:16:26.935Z,99.90
2022-07-31T06:18:54.203Z,99.90
2022-07-31T06:23:47.965Z,99.90
2022-07-31T06:26:15.258Z,99.90
2022-07-31T06:28:48.676Z,99.90
2022-07-31T06:31:19.463Z,99.90
2022-07-31T06:33:48.396Z,99.90
2022-07-31T06:36:17.329Z,99.90
2022-07-31T06:38:44.676Z,99.90
2022-07-31T06:41:11.982Z,99.90
2022-07-31T06:43:39.035Z,99.90
2022-07-31T06:46:06.148Z,99.90
2022-07-31T06:48:33.262Z,99.90
2022-07-31T06:51:27.925Z,99.90
2022-07-31T06:53:47.480Z,99.90
2022-07-31T06:56:14.556Z,99.90
2022-07-31T06:58:41.611Z,99.90
2022-07-31T07:01:08.842Z,99.90
2022-07-31T07:03:35.992Z,99.90
2022-07-31T07:06:03.668Z,99.90
2022-07-31T07:08:30.914Z,99.90
2022-07-31T07:10:57.996Z,99.90
2022-07-31T07:13:44.995Z,99.90
2022-07-31T07:16:14.756Z,99.90
2022-07-31T07:18:43.269Z,99.90
2022-07-31T07:21:11.386Z,99.90
2022-07-31T07:23:38.866Z,99.90
2022-07-31T07:26:06.419Z,99.90
2022-07-31T07:28:34.410Z,99.90
2022-07-31T07:31:02.738Z,99.90
2022-07-31T07:33:41.487Z,99.90
2022-07-31T07:36:22.909Z,99.90
2022-07-31T07:38:56.269Z,99.90
2022-07-31T07:41:27.075Z,99.90
2022-07-31T07:43:54.224Z,99.90
2022-07-31T07:46:25.200Z,99.90
2022-07-31T07:48:52.836Z,99.90
2022-07-31T07:51:20.938Z,99.90
2022-07-31T07:53:48.491Z,99.90
2022-07-31T07:56:16.137Z,99.90
2022-07-31T07:58:43.223Z,99.90
2022-07-31T08:01:10.431Z,99.90
2022-07-31T08:03:50.974Z,99.90
2022-07-31T08:06:21.462Z,99.90
2022-07-31T08:08:49.029Z,99.90
2022-07-31T08:11:17.301Z,99.90
2022-07-31T08:13:50.629Z,99.90
2022-07-31T08:16:24.375Z,99.90
2022-07-31T08:18:55.148Z,99.90
2022-07-31T08:21:22.271Z,99.90
2022-07-31T08:23:49.613Z,99.90
2022-07-31T08:26:18.649Z,99.90
2022-07-31T08:28:49.981Z,99.90
2022-07-31T08:31:19.707Z,99.90
2022-07-31T08:33:47.551Z,99.90
2022-07-31T08:36:14.666Z,99.90
2022-07-31T08:38:41.804Z,99.90
2022-07-31T08:41:08.920Z,99.90
2022-07-31T08:44:02.103Z,99.90
2022-07-31T08:46:24.667Z,99.90
2022-07-31T08:48:56.382Z,99.90
2022-07-31T08:51:24.466Z,99.90
2022-07-31T08:53:53.118Z,99.90
2022-07-31T08:56:24.078Z,99.90
2022-07-31T08:58:51.783Z,99.90
2022-07-31T09:01:19.006Z,99.90
2022-07-31T09:03:46.125Z,99.90
2022-07-31T09:06:13.233Z,99.90
2022-07-31T09:08:40.410Z,98.60
2022-07-31T09:11:10.665Z,99.80
2022-07-31T09:13:38.991Z,99.90
2022-07-31T09:16:06.890Z,98.10
2022-07-31T09:18:35.187Z,95.40
2022-07-31T09:21:04.848Z,95.60
2022-07-31T09:23:32.471Z,96.00
2022-07-31T09:26:06.177Z,96.90
2022-07-31T09:28:41.048Z,97.90
2022-07-31T09:31:10.400Z,98.00
2022-07-31T09:33:45.155Z,94.20
2022-07-31T09:36:14.164Z,92.80
2022-07-31T09:38:43.436Z,91.90
2022-07-31T09:41:56.651Z,92.40
2022-07-31T09:44:10.438Z,94.30
2022-07-31T09:46:46.902Z,90.90
2022-07-31T09:49:15.348Z,90.10
2022-07-31T09:51:46.129Z,90.00
2022-07-31T09:54:26.876Z,88.30
2022-07-31T09:56:54.323Z,86.30
2022-07-31T09:59:21.424Z,85.50
2022-07-31T10:01:49.903Z,84.50
2022-07-31T10:04:22.884Z,86.40
2022-07-31T10:06:52.324Z,89.20
2022-07-31T10:09:25.575Z,86.70
2022-07-31T10:11:57.587Z,84.00
2022-07-31T10:14:40.060Z,86.30
2022-07-31T10:17:08.188Z,87.60
2022-07-31T10:19:39.136Z,90.10
2022-07-31T10:22:06.891Z,87.00
2022-07-31T10:24:38.607Z,86.00
2022-07-31T10:27:09.077Z,89.00
2022-07-31T10:29:39.487Z,90.30
2022-07-31T10:32:08.787Z,88.30
2022-07-31T10:34:36.613Z,89.10
2022-07-31T10:37:20.706Z,90.20
2022-07-31T10:40:12.362Z,89.40
2022-07-31T10:42:55.948Z,88.30
2022-07-31T10:45:23.894Z,89.20
2022-07-31T10:48:00.997Z,87.10
2022-07-31T10:50:31.772Z,84.20
2022-07-31T10:53:10.636Z,86.70
2022-07-31T10:55:37.982Z,82.30
2022-07-31T10:58:17.438Z,83.10
2022-07-31T11:00:45.574Z,80.40
2022-07-31T11:03:21.689Z,82.00
2022-07-31T11:06:03.165Z,79.80
2022-07-31T11:08:45.356Z,84.40
2022-07-31T11:11:13.795Z,86.50
2022-07-31T11:13:56.693Z,87.10
2022-07-31T11:16:24.586Z,84.60
2022-07-31T11:19:01.127Z,81.90
2022-07-31T11:21:39.553Z,83.30
2022-07-31T11:24:22.292Z,84.00
2022-07-31T11:26:56.216Z,83.70
2022-07-31T11:30:01.390Z,81.80
2022-07-31T11:32:25.209Z,83.50
2022-07-31T11:34:57.588Z,84.30
2022-07-31T11:37:56.375Z,83.30
2022-07-31T11:40:22.156Z,80.40
2022-07-31T11:43:10.324Z,80.90
2022-07-31T11:45:53.299Z,84.10
2022-07-31T11:48:27.204Z,80.50
2022-07-31T11:50:57.151Z,85.40
2022-07-31T11:53:24.347Z,81.50
2022-07-31T11:55:55.118Z,83.40
2022-07-31T11:58:24.023Z,80.30
2022-07-31T12:00:53.977Z,80.00
2022-07-31T12:03:24.909Z,76.00
2022-07-31T12:05:53.364Z,77.00
2022-07-31T12:08:22.734Z,71.30
2022-07-31T12:11:00.043Z,67.20
2022-07-31T12:13:28.526Z,65.90
2022-07-31T12:16:04.659Z,65.40
2022-07-31T12:18:49.646Z,63.00
2022-07-31T12:21:18.305Z,64.10
2022-07-31T12:23:51.603Z,65.70
2022-07-31T12:26:24.887Z,64.10
2022-07-31T12:29:07.611Z,67.40
2022-07-31T12:31:52.983Z,72.90
2022-07-31T12:34:36.000Z,69.30
2022-07-31T12:37:21.900Z,69.20
2022-07-31T12:39:59.942Z,69.00
2022-07-31T12:42:41.843Z,69.30
2022-07-31T12:45:19.848Z,70.00
2022-07-31T12:47:51.642Z,72.40
2022-07-31T12:50:23.972Z,71.40
2022-07-31T12:52:51.408Z,72.60
2022-07-31T12:55:18.922Z,74.30
2022-07-31T12:57:51.095Z,72.60
2022-07-31T13:00:24.102Z,74.80
2022-07-31T13:02:57.209Z,72.50
2022-07-31T13:05:25.770Z,70.40
2022-07-31T13:07:54.013Z,66.90
2022-07-31T13:10:24.771Z,63.60
2022-07-31T13:12:52.934Z,60.80
2022-07-31T13:15:31.382Z,59.70
2022-07-31T13:18:04.951Z,60.70
2022-07-31T13:20:32.669Z,58.90
2022-07-31T13:23:00.011Z,56.00
2022-07-31T13:25:32.324Z,58.00
2022-07-31T13:27:59.976Z,62.60
2022-07-31T13:30:28.400Z,64.30
2022-07-31T13:32:55.616Z,62.60
2022-07-31T13:35:27.457Z,59.30
2022-07-31T13:37:55.791Z,59.90
2022-07-31T13:40:42.943Z,59.60
2022-07-31T13:43:10.090Z,62.50
2022-07-31T13:45:37.423Z,58.50
2022-07-31T13:48:09.314Z,57.00
2022-07-31T13:50:41.459Z,56.00
2022-07-31T13:53:10.226Z,55.80
2022-07-31T13:55:37.700Z,54.80
2022-07-31T13:58:05.130Z,56.30
2022-07-31T14:00:32.694Z,53.80
2022-07-31T14:03:00.020Z,54.20
2022-07-31T14:05:27.813Z,54.10
2022-07-31T14:07:56.276Z,55.60
2022-07-31T14:10:43.986Z,58.10
2022-07-31T14:13:17.131Z,57.00
2022-07-31T14:15:46.480Z,57.50
2022-07-31T14:18:13.591Z,57.90
2022-07-31T14:20:40.683Z,57.80
2022-07-31T14:23:10.711Z,57.40
2022-07-31T14:25:39.186Z,57.70
2022-07-31T14:28:08.696Z,58.30
2022-07-31T14:30:37.389Z,57.70
2022-07-31T14:33:05.395Z,58.00
2022-07-31T14:35:33.713Z,57.20
2022-07-31T14:38:04.169Z,56.90
2022-07-31T14:40:31.741Z,56.30
2022-07-31T14:42:59.517Z,56.20
2022-07-31T14:45:26.744Z,57.60
2022-07-31T14:47:55.256Z,59.30
2022-07-31T14:50:23.447Z,58.30
2022-07-31T14:52:51.028Z,57.20
2022-07-31T14:55:19.660Z,58.70
2022-07-31T14:57:46.805Z,59.30
2022-07-31T15:00:15.103Z,58.70
2022-07-31T15:02:44.163Z,60.50
2022-07-31T15:06:40.956Z,61.20
2022-07-31T15:08:02.528Z,58.80
2022-07-31T15:10:31.144Z,57.70
2022-07-31T15:12:58.295Z,58.30
2022-07-31T15:15:25.420Z,59.10
2022-07-31T15:17:56.068Z,59.70
2022-07-31T15:20:30.056Z,59.50
2022-07-31T15:23:01.081Z,59.40
2022-07-31T15:25:28.318Z,57.20
2022-07-31T15:27:55.431Z,56.00
2022-07-31T15:30:23.256Z,58.80
2022-07-31T15:32:53.228Z,56.10
2022-07-31T15:35:20.625Z,57.40
2022-07-31T15:37:49.613Z,58.50
2022-07-31T15:40:17.542Z,56.40
2022-07-31T15:42:46.910Z,55.30
2022-07-31T15:45:18.066Z,54.70
2022-07-31T15:47:46.135Z,55.90
2022-07-31T15:50:16.761Z,55.90
2022-07-31T15:52:44.063Z,56.60
2022-07-31T15:55:11.739Z,57.80
2022-07-31T15:57:39.503Z,56.70
2022-07-31T16:00:14.393Z,55.70
2022-07-31T16:02:42.844Z,55.60
2022-07-31T16:05:36.076Z,54.90
2022-07-31T16:08:32.082Z,55.60
2022-07-31T16:10:46.962Z,57.60
2022-07-31T16:13:15.328Z,56.00
2022-07-31T16:15:42.455Z,53.70
2022-07-31T16:18:09.522Z,52.80
2022-07-31T16:20:45.530Z,52.00
2022-07-31T16:23:12.744Z,52.90
2022-07-31T16:25:39.835Z,53.40
2022-07-31T16:28:06.956Z,53.70
2022-07-31T16:30:34.107Z,53.10
2022-07-31T16:33:01.218Z,53.70
2022-07-31T16:35:28.416Z,53.30
2022-07-31T16:37:55.780Z,54.80
2022-07-31T16:40:30.579Z,53.40
2022-07-31T16:43:51.067Z,53.90
2022-07-31T16:45:53.571Z,52.10
2022-07-31T16:48:20.968Z,52.50
2022-07-31T16:50:54.142Z,53.50
2022-07-31T16:54:10.801Z,53.50
2022-07-31T16:56:15.499Z,52.80
2022-07-31T16:58:44.255Z,54.40
2022-07-31T17:01:57.040Z,53.40
2022-07-31T17:04:03.542Z,53.00
2022-07-31T17:06:34.399Z,53.80
2022-07-31T17:09:15.954Z,52.70
2022-07-31T17:11:55.564Z,52.40
2022-07-31T17:14:27.101Z,52.50
2022-07-31T17:16:55.882Z,51.80
2022-07-31T17:19:41.051Z,52.00
2022-07-31T17:22:17.546Z,51.40
2022-07-31T17:24:51.938Z,52.80
2022-07-31T17:27:21.609Z,53.30
2022-07-31T17:29:49.279Z,54.00
2022-07-31T17:32:17.672Z,54.30
2022-07-31T17:34:46.477Z,54.50
2022-07-31T17:37:13.971Z,54.70
2022-07-31T17:39:41.130Z,54.50
2022-07-31T17:42:09.298Z,53.70
2022-07-31T17:44:37.822Z,54.30
2022-07-31T17:47:08.391Z,54.80
2022-07-31T17:49:36.467Z,55.40
2022-07-31T17:52:04.373Z,56.00
2022-07-31T17:54:32.685Z,56.90
2022-07-31T17:57:00.406Z,56.70
2022-07-31T17:59:28.315Z,57.20
2022-07-31T18:02:03.790Z,57.50
2022-07-31T18:04:34.282Z,57.50
2022-07-31T18:07:04.525Z,57.70
2022-07-31T18:09:35.255Z,58.60
2022-07-31T18:12:03.473Z,57.90
2022-07-31T18:14:30.976Z,58.30
2022-07-31T18:16:58.038Z,58.60
2022-07-31T18:19:25.168Z,59.70
2022-07-31T18:21:52.842Z,61.60
2022-07-31T18:24:21.372Z,62.80
2022-07-31T18:26:49.451Z,64.40
2022-07-31T18:29:17.948Z,65.70
2022-07-31T18:31:46.547Z,68.50
2022-07-31T18:34:15.643Z,69.10
2022-07-31T18:36:43.019Z,70.10
2022-07-31T18:39:10.389Z,72.10
2022-07-31T18:41:38.350Z,73.20
2022-07-31T18:44:06.703Z,74.30
2022-07-31T18:46:33.997Z,75.20
2022-07-31T18:49:01.345Z,75.80
2022-07-31T18:51:29.985Z,77.50
2022-07-31T18:53:58.205Z,77.90
2022-07-31T18:56:26.352Z,77.50
2022-07-31T18:58:54.863Z,78.30
2022-07-31T19:01:23.789Z,80.60
2022-07-31T19:03:51.302Z,78.90
2022-07-31T19:06:19.514Z,79.80
2022-07-31T19:08:49.433Z,81.00
2022-07-31T19:11:16.734Z,81.70
2022-07-31T19:13:44.031Z,79.70
2022-07-31T19:16:11.358Z,80.50
2022-07-31T19:18:40.329Z,81.00
2022-07-31T19:21:23.619Z,81.50
2022-07-31T19:23:56.137Z,80.40
2022-07-31T19:26:24.681Z,80.60
2022-07-31T19:28:51.763Z,81.90
2022-07-31T19:31:18.899Z,83.40
2022-07-31T19:33:46.171Z,84.40
2022-07-31T19:36:15.351Z,84.60
2022-07-31T19:38:44.490Z,85.40
2022-07-31T19:41:13.822Z,85.10
2022-07-31T19:43:41.039Z,85.90
2022-07-31T19:46:12.300Z,85.60
2022-07-31T19:48:46.745Z,85.00
2022-07-31T19:51:15.913Z,84.50
2022-07-31T19:53:44.661Z,86.20
2022-07-31T19:56:19.722Z,82.60
2022-07-31T19:58:48.200Z,82.80
2022-07-31T20:01:15.479Z,85.30
2022-07-31T20:03:42.859Z,84.90
2022-07-31T20:06:12.321Z,85.60
2022-07-31T20:08:39.471Z,86.20
2022-07-31T20:11:06.936Z,87.70
2022-07-31T20:13:37.810Z,88.30
2022-07-31T20:16:05.644Z,89.30
2022-07-31T20:18:32.942Z,90.20
2022-07-31T20:21:10.085Z,90.40
2022-07-31T20:23:41.775Z,90.50
2022-07-31T20:26:11.977Z,90.90
2022-07-31T20:28:40.510Z,91.40
2022-07-31T20:31:16.302Z,91.60
2022-07-31T20:33:57.874Z,91.60
2022-07-31T20:36:26.983Z,92.50
2022-07-31T20:38:54.920Z,92.80
2022-07-31T20:41:21.997Z,92.90
2022-07-31T20:43:52.373Z,92.80
2022-07-31T20:46:19.584Z,92.70
2022-07-31T20:48:47.220Z,93.00
2022-07-31T20:51:20.497Z,93.00
2022-07-31T20:53:48.134Z,93.70
2022-07-31T20:56:16.942Z,94.20
2022-07-31T20:58:49.463Z,94.30
2022-07-31T21:01:20.229Z,94.60
2022-07-31T21:03:48.745Z,95.40
2022-07-31T21:06:16.600Z,95.80
2022-07-31T21:08:43.691Z,96.00
2022-07-31T21:11:10.854Z,96.80
2022-07-31T21:13:38.268Z,97.50
2022-07-31T21:16:06.772Z,97.80
2022-07-31T21:18:35.788Z,98.70
2022-07-31T21:21:04.550Z,99.40
2022-07-31T21:23:31.787Z,99.90
2022-07-31T21:25:59.979Z,99.90
2022-07-31T21:28:28.171Z,99.90
2022-07-31T21:30:58.767Z,99.90
2022-07-31T21:33:29.317Z,99.90
2022-07-31T21:35:56.638Z,99.90
2022-07-31T21:38:24.504Z,99.90
2022-07-31T21:40:54.001Z,99.90
2022-07-31T21:43:22.147Z,99.90
2022-07-31T21:45:57.348Z,99.90
2022-07-31T21:48:29.697Z,99.90
2022-07-31T21:50:57.348Z,99.90
2022-07-31T21:53:24.845Z,99.90
2022-07-31T21:55:52.570Z,99.90
2022-07-31T21:58:19.742Z,99.90
2022-07-31T22:00:47.053Z,99.90
2022-07-31T22:03:14.362Z,99.90
2022-07-31T22:06:00.368Z,99.90
2022-07-31T22:08:27.554Z,99.90
2022-07-31T22:10:54.885Z,99.90
2022-07-31T22:13:22.146Z,99.90
2022-07-31T22:15:58.080Z,99.90
2022-07-31T22:18:33.520Z,99.90
2022-07-31T22:21:03.573Z,99.90
2022-07-31T22:23:31.327Z,99.90
2022-07-31T22:25:58.719Z,99.90
2022-07-31T22:28:27.492Z,99.90
2022-07-31T22:30:56.281Z,99.90
2022-07-31T22:33:24.542Z,99.90
2022-07-31T22:35:59.889Z,99.90
2022-07-31T22:38:30.174Z,99.90
2022-07-31T22:40:59.107Z,99.90
2022-07-31T22:44:05.618Z,99.90
2022-07-31T22:46:14.383Z,99.90
2022-07-31T22:48:41.791Z,99.90
2022-07-31T22:51:10.813Z,99.90
2022-07-31T22:53:44.297Z,99.90
2022-07-31T22:56:11.604Z,99.90
2022-07-31T22:58:38.808Z,99.90
2022-07-31T23:01:06.026Z,99.90
2022-07-31T23:03:33.124Z,99.90
2022-07-31T23:06:13.071Z,99.90
2022-07-31T23:08:54.857Z,99.90
2022-07-31T23:11:23.205Z,99.90
2022-07-31T23:13:51.359Z,99.90
2022-07-31T23:16:20.414Z,99.90
2022-07-31T23:18:48.134Z,99.90
2022-07-31T23:21:15.395Z,99.90
2022-07-31T23:23:48.014Z,99.90
2022-07-31T23:26:23.399Z,99.90
2022-07-31T23:28:51.982Z,99.90
2022-07-31T23:31:19.286Z,99.90
2022-07-31T23:33:47.974Z,99.90
2022-07-31T23:36:16.255Z,99.90
2022-07-31T23:38:44.250Z,99.90
2022-07-31T23:41:11.676Z,99.90
2022-07-31T23:43:38.946Z,99.90
2022-07-31T23:46:06.237Z,99.90
2022-07-31T23:48:35.540Z,99.90
2022-07-31T23:51:03.544Z,99.90
2022-07-31T23:53:30.631Z,99.90
2022-07-31T23:55:57.759Z,99.90
2022-07-31T23:58:24.840Z,99.90
